Time;durP1;ratioP1;P1;durP2;ratioP2;P2;SDS_P1;SDS_P2;PMS_P1;PMS_P2;Temp;Humidity;BMP_temperature;BMP_pressure;BME280_temperature;BME280_humidity;BME280_pressure;Samples;Min_cycle;Max_cycle;Signal;HPM_P1;HPM_P2
2023/11/12 00:00:02;;;;;;;10.63;4.45;;;;;;;6.57;100.00;100136.50;6253364;28;20053;-71
2023/11/12 00:03:05;;;;;;;10.73;4.47;;;;;;;6.53;100.00;100137.53;6240371;28;20050;-71
2023/11/12 00:06:06;;;;;;;13.23;4.50;;;;;;;6.50;100.00;100141.16;6251808;28;20139;-70
2023/11/12 00:09:08;;;;;;;9.25;4.20;;;;;;;6.51;100.00;100149.84;6238800;28;20053;-71
2023/11/12 00:12:11;;;;;;;8.98;3.78;;;;;;;6.57;100.00;100154.75;6252080;28;20042;-70
2023/11/12 00:15:13;;;;;;;9.13;5.25;;;;;;;6.50;100.00;100161.19;6252623;28;20464;-71
2023/11/12 00:18:16;;;;;;;12.77;5.47;;;;;;;6.45;100.00;100160.53;6253097;28;20056;-71
2023/11/12 00:21:17;;;;;;;12.55;5.30;;;;;;;6.42;100.00;100160.69;6252689;28;20456;-71
2023/11/12 00:24:19;;;;;;;8.48;4.68;;;;;;;6.42;100.00;100160.69;6252646;28;20045;-71
2023/11/12 00:27:21;;;;;;;9.65;5.00;;;;;;;6.44;100.00;100167.53;6252819;28;20054;-71
2023/11/12 00:30:23;;;;;;;9.50;5.05;;;;;;;6.47;100.00;100166.53;6252703;28;20050;-71
2023/11/12 00:33:26;;;;;;;10.20;5.00;;;;;;;6.45;100.00;100166.63;6242890;28;20057;-71
2023/11/12 00:36:30;;;;;;;10.18;6.10;;;;;;;6.48;100.00;100158.63;6245919;28;20363;-71
2023/11/12 00:39:32;;;;;;;11.57;5.63;;;;;;;6.48;100.00;100156.03;6252432;28;20446;-71
2023/11/12 00:42:34;;;;;;;9.48;5.65;;;;;;;6.47;100.00;100156.09;6251986;28;20358;-71
2023/11/12 00:45:37;;;;;;;14.70;6.40;;;;;;;6.47;100.00;100162.16;6252458;28;20053;-70
2023/11/12 00:48:38;;;;;;;14.98;6.50;;;;;;;6.49;100.00;100162.09;6252170;28;20508;-71
2023/11/12 00:51:40;;;;;;;18.85;6.97;;;;;;;6.49;100.00;100156.88;6252057;28;20060;-70
2023/11/12 00:54:41;;;;;;;14.98;6.43;;;;;;;6.42;100.00;100164.16;6251920;28;20438;-71
2023/11/12 00:57:44;;;;;;;17.13;6.93;;;;;;;6.44;100.00;100164.06;6251999;28;20058;-71
2023/11/12 01:00:45;;;;;;;10.63;6.63;;;;;;;6.44;100.00;100162.31;6251847;28;20052;-71
2023/11/12 01:03:47;;;;;;;12.38;6.93;;;;;;;6.41;100.00;100157.25;6252087;28;20056;-70
2023/11/12 01:06:48;;;;;;;13.95;7.00;;;;;;;6.44;100.00;100159.69;6251576;28;20053;-70
2023/11/12 01:09:50;;;;;;;13.30;7.35;;;;;;;6.45;100.00;100156.19;6251983;28;20056;-71
2023/11/12 01:12:53;;;;;;;15.80;7.28;;;;;;;6.42;100.00;100160.69;6251388;28;20042;-70
2023/11/12 01:15:56;;;;;;;13.05;6.25;;;;;;;6.41;100.00;100156.41;6251614;28;20136;-70
2023/11/12 01:18:58;;;;;;;16.92;6.75;;;;;;;6.43;100.00;100158.00;6251553;28;20053;-71
2023/11/12 01:22:00;;;;;;;19.60;8.68;;;;;;;6.43;100.00;100162.38;6250940;28;20452;-71
2023/11/12 01:25:02;;;;;;;13.13;6.93;;;;;;;6.43;100.00;100155.41;6251356;28;20361;-71
2023/11/12 01:28:05;;;;;;;17.60;8.07;;;;;;;6.44;100.00;100156.25;6251285;28;20521;-70
2023/11/12 01:31:07;;;;;;;18.00;7.45;;;;;;;6.42;100.00;100164.16;6251080;28;20053;-71
2023/11/12 01:34:08;;;;;;;16.00;8.85;;;;;;;6.37;100.00;100160.91;6250835;28;20073;-70
2023/11/12 01:37:10;;;;;;;16.35;7.93;;;;;;;6.36;100.00;100156.59;6250729;28;20073;-70
2023/11/12 01:40:14;;;;;;;17.85;8.45;;;;;;;6.40;100.00;100150.31;6250890;28;20057;-70
2023/11/12 01:43:17;;;;;;;17.75;9.02;;;;;;;6.40;100.00;100149.47;6250859;28;20175;-71
2023/11/12 01:46:19;;;;;;;15.30;8.27;;;;;;;6.34;100.00;100154.06;6252887;22;20046;-70
2023/11/12 01:49:21;;;;;;;20.45;8.50;;;;;;;6.40;100.00;100154.69;6217942;28;20418;-70
2023/11/12 01:52:23;;;;;;;18.73;8.40;;;;;;;6.42;100.00;100158.94;6201680;28;20060;-70
2023/11/12 01:55:27;;;;;;;17.83;8.85;;;;;;;6.38;100.00;100157.38;6224010;28;20065;-69
2023/11/12 01:58:30;;;;;;;19.85;9.85;;;;;;;6.40;100.00;100149.47;6226334;28;20080;-69
2023/11/12 02:01:32;;;;;;;19.33;9.02;;;;;;;6.35;100.00;100152.28;6225708;28;20054;-70
2023/11/12 02:04:33;;;;;;;16.80;8.05;;;;;;;6.37;100.00;100155.69;6226219;28;20053;-70
2023/11/12 02:07:36;;;;;;;22.38;9.80;;;;;;;6.33;100.00;100149.75;6224223;28;20447;-69
2023/11/12 02:10:38;;;;;;;17.58;9.15;;;;;;;6.33;100.00;100151.53;6236777;28;20057;-70
2023/11/12 02:13:43;;;;;;;21.15;10.23;;;;;;;6.31;100.00;100161.16;6244798;28;20499;-69
2023/11/12 02:16:46;;;;;;;22.35;9.93;;;;;;;6.29;100.00;100155.19;6234617;28;20353;-70
2023/11/12 02:19:47;;;;;;;19.70;10.45;;;;;;;6.28;100.00;100163.94;6250431;28;20430;-69
2023/11/12 02:22:48;;;;;;;20.10;10.65;;;;;;;6.25;100.00;100159.69;6250198;28;20072;-70
2023/11/12 02:25:52;;;;;;;20.20;9.60;;;;;;;6.22;100.00;100159.84;6248149;28;20276;-71
2023/11/12 02:28:54;;;;;;;17.92;9.18;;;;;;;6.20;100.00;100159.03;6241761;28;20056;-70
2023/11/12 02:31:55;;;;;;;20.90;10.18;;;;;;;6.17;100.00;100146.13;6250050;28;20053;-70
2023/11/12 02:34:57;;;;;;;19.77;10.35;;;;;;;6.13;100.00;100157.63;6250016;28;20133;-70
2023/11/12 02:37:59;;;;;;;18.90;9.40;;;;;;;6.15;100.00;100170.59;6250146;28;20053;-69
2023/11/12 02:41:02;;;;;;;27.63;11.88;;;;;;;6.18;100.00;100157.44;6250069;28;20445;-70
2023/11/12 02:44:07;;;;;;;20.50;10.27;;;;;;;6.17;100.00;100164.38;6249991;28;20057;-70
2023/11/12 02:47:08;;;;;;;22.10;11.30;;;;;;;6.22;100.00;100166.78;6250149;28;20049;-70
2023/11/12 02:50:29;;;;;;;21.35;10.07;;;;;;;6.23;100.00;100164.13;6250097;28;20052;-70
2023/11/12 02:53:31;;;;;;;19.52;10.18;;;;;;;6.24;100.00;100170.19;6249772;28;20187;-70
2023/11/12 02:56:34;;;;;;;22.30;10.10;;;;;;;6.22;100.00;100167.66;6250113;28;20049;-70
2023/11/12 02:59:36;;;;;;;18.50;10.23;;;;;;;6.20;100.00;100166.88;6254204;28;20143;-71
2023/11/12 03:02:37;;;;;;;21.20;9.95;;;;;;;6.26;100.00;100169.19;6254594;28;20053;-71
2023/11/12 03:05:39;;;;;;;21.80;11.32;;;;;;;6.25;100.00;100175.34;6254559;28;20116;-70
2023/11/12 03:08:41;;;;;;;23.42;10.85;;;;;;;6.20;100.00;100172.09;6254798;28;20057;-72
2023/11/12 03:11:44;;;;;;;27.35;12.35;;;;;;;6.25;100.00;100174.50;6254247;28;20361;-72
2023/11/12 03:14:46;;;;;;;26.10;12.50;;;;;;;6.26;100.00;100173.56;6254615;28;20179;-72
2023/11/12 03:17:48;;;;;;;24.00;10.98;;;;;;;6.25;100.00;100171.88;6254313;28;20060;-73
2023/11/12 03:20:49;;;;;;;25.17;13.10;;;;;;;6.19;100.00;100170.41;6254581;28;20053;-72
2023/11/12 03:23:51;;;;;;;24.80;11.13;;;;;;;6.21;100.00;100172.94;6254194;28;20045;-72
2023/11/12 03:26:54;;;;;;;24.08;12.32;;;;;;;6.20;100.00;100173.84;6254194;28;20049;-72
2023/11/12 03:29:55;;;;;;;21.58;10.52;;;;;;;6.16;100.00;100169.69;6253822;28;20359;-69
2023/11/12 03:32:57;;;;;;;25.23;12.43;;;;;;;6.19;100.00;100172.16;6253594;28;20053;-72
2023/11/12 03:35:59;;;;;;;25.15;12.52;;;;;;;6.15;100.00;100163.63;6252989;28;20154;-72
2023/11/12 03:39:01;;;;;;;28.20;13.18;;;;;;;6.18;100.00;100165.25;6254211;28;20053;-72
2023/11/12 03:42:05;;;;;;;34.97;13.77;;;;;;;6.29;100.00;100163.00;6253117;28;20052;-72
2023/11/12 03:45:08;;;;;;;28.13;13.02;;;;;;;6.27;100.00;100164.84;6245309;28;20120;-72
2023/11/12 03:48:10;;;;;;;29.55;13.18;;;;;;;6.12;100.00;100160.28;6253629;28;20050;-70
2023/11/12 03:51:12;;;;;;;33.38;14.98;;;;;;;6.15;100.00;100157.56;6243143;28;20074;-72
2023/11/12 03:54:13;;;;;;;29.65;13.27;;;;;;;6.00;100.00;100166.91;6241275;28;20045;-69
2023/11/12 03:57:17;;;;;;;26.70;13.05;;;;;;;6.04;100.00;100158.03;6252837;28;20056;-72
2023/11/12 04:00:18;;;;;;;33.33;14.23;;;;;;;5.96;100.00;100168.81;6253287;28;20045;-71
2023/11/12 04:03:20;;;;;;;35.65;13.73;;;;;;;6.04;100.00;100171.06;6245015;28;20045;-72
2023/11/12 04:06:21;;;;;;;32.13;12.60;;;;;;;6.01;100.00;100176.44;6252943;28;20063;-71
2023/11/12 04:09:23;;;;;;;25.48;11.80;;;;;;;6.02;100.00;100183.34;6245049;28;20053;-72
2023/11/12 04:12:25;;;;;;;35.60;14.30;;;;;;;5.84;100.00;100174.50;6253033;28;20068;-71
2023/11/12 04:15:27;;;;;;;28.83;12.95;;;;;;;5.91;100.00;100177.72;6245360;28;20050;-72
2023/11/12 04:18:29;;;;;;;34.85;14.63;;;;;;;6.02;100.00;100181.56;6225393;28;20050;-69
2023/11/12 04:21:30;;;;;;;35.30;13.05;;;;;;;6.07;100.00;100182.22;6216040;28;20042;-71
2023/11/12 04:24:31;;;;;;;34.47;15.15;;;;;;;6.00;100.00;100183.41;6228217;28;20358;-72
2023/11/12 04:27:37;;;;;;;32.10;14.50;;;;;;;5.98;100.00;100179.16;6226029;28;20058;-72
2023/11/12 04:30:39;;;;;;;31.45;14.32;;;;;;;6.00;100.00;100178.19;6231610;28;20451;-75
2023/11/12 04:33:40;;;;;;;37.00;14.13;;;;;;;6.10;100.00;100184.69;6216542;28;20458;-75
2023/11/12 04:36:44;;;;;;;34.53;14.27;;;;;;;6.08;100.00;100183.91;6215792;28;20050;-75
2023/11/12 04:39:45;;;;;;;36.97;15.35;;;;;;;6.04;100.00;100181.50;6211483;28;20046;-75
2023/11/12 04:42:48;;;;;;;28.05;12.85;;;;;;;6.00;100.00;100175.59;6216857;28;20057;-75
2023/11/12 04:45:49;;;;;;;29.20;13.15;;;;;;;6.07;100.00;100183.97;6227686;28;20147;-75
2023/11/12 04:48:51;;;;;;;34.13;13.48;;;;;;;6.12;100.00;100183.78;6227850;28;20056;-75
2023/11/12 04:51:53;;;;;;;29.85;13.52;;;;;;;6.13;100.00;100175.03;6227709;28;20050;-76
2023/11/12 04:54:55;;;;;;;34.22;14.07;;;;;;;6.14;100.00;100190.63;6227681;28;20042;-76
2023/11/12 04:57:57;;;;;;;32.22;14.38;;;;;;;6.15;100.00;100187.09;6227780;28;20061;-71
2023/11/12 05:00:59;;;;;;;32.78;13.63;;;;;;;6.21;100.00;100194.66;6227514;28;20053;-71
2023/11/12 05:04:00;;;;;;;33.53;15.07;;;;;;;6.24;100.00;100189.31;6227178;28;20046;-75
2023/11/12 05:07:02;;;;;;;43.03;15.13;;;;;;;6.28;100.00;100188.25;6227338;28;20180;-76
2023/11/12 05:10:05;;;;;;;35.83;14.98;;;;;;;6.33;100.00;100190.66;6211247;28;20332;-76
2023/11/12 05:13:08;;;;;;;38.63;14.60;;;;;;;6.34;100.00;100184.53;6202943;28;20107;-75
2023/11/12 05:16:09;;;;;;;33.92;14.20;;;;;;;6.28;100.00;100183.03;6209840;28;20133;-72
2023/11/12 05:19:11;;;;;;;32.67;14.80;;;;;;;6.27;100.00;100183.97;6208152;28;20157;-75
2023/11/12 05:22:13;;;;;;;35.92;15.40;;;;;;;6.31;100.00;100195.97;6216409;28;20061;-75
2023/11/12 05:25:14;;;;;;;39.15;14.43;;;;;;;6.33;100.00;100190.66;6209806;28;20070;-76
2023/11/12 05:28:17;;;;;;;31.52;12.88;;;;;;;6.38;100.00;100193.06;6213217;28;20054;-72
2023/11/12 05:31:18;;;;;;;35.25;14.68;;;;;;;6.30;100.00;100190.78;6202841;28;20054;-72
2023/11/12 05:34:20;;;;;;;32.05;13.98;;;;;;;6.31;100.00;100189.88;6202300;28;20065;-71
2023/11/12 05:37:21;;;;;;;29.92;13.50;;;;;;;6.36;100.00;100198.38;6202127;28;20104;-72
2023/11/12 05:40:23;;;;;;;35.03;15.38;;;;;;;6.36;100.00;100193.16;6202277;28;20054;-72
2023/11/12 05:43:26;;;;;;;32.05;14.23;;;;;;;6.30;100.00;100196.84;6222058;28;20045;-72
2023/11/12 05:46:28;;;;;;;36.65;14.75;;;;;;;6.36;100.00;100198.38;6242355;28;20054;-72
2023/11/12 05:49:29;;;;;;;37.08;14.60;;;;;;;6.42;100.00;100202.44;6250878;28;20102;-72
2023/11/12 05:52:31;;;;;;;35.40;15.10;;;;;;;6.41;100.00;100196.38;6233358;28;20077;-72
2023/11/12 05:55:32;;;;;;;36.15;15.30;;;;;;;6.43;100.00;100204.13;6226372;28;20438;-72
2023/11/12 05:58:35;;;;;;;45.05;16.30;;;;;;;6.43;100.00;100206.75;6226527;28;20050;-72
2023/11/12 06:01:37;;;;;;;32.03;14.18;;;;;;;6.46;100.00;100214.44;6234622;28;20049;-72
2023/11/12 06:04:38;;;;;;;35.03;15.43;;;;;;;6.49;100.00;100211.69;6242357;28;20041;-72
2023/11/12 06:07:40;;;;;;;39.47;16.77;;;;;;;6.55;100.00;100220.09;6230608;28;20366;-71
2023/11/12 06:10:43;;;;;;;41.50;17.02;;;;;;;6.49;100.00;100224.72;6250647;28;20061;-72
2023/11/12 06:13:46;;;;;;;40.15;17.50;;;;;;;6.47;100.00;100223.97;6250508;28;20136;-72
2023/11/12 06:16:47;;;;;;;41.53;17.60;;;;;;;6.42;100.00;100223.34;6250495;28;20366;-72
2023/11/12 06:19:48;;;;;;;32.85;14.75;;;;;;;6.45;100.00;100223.19;6250766;28;20049;-72
2023/11/12 06:22:50;;;;;;;40.05;16.45;;;;;;;6.44;100.00;100239.75;6247255;28;20125;-72
2023/11/12 06:25:51;;;;;;;38.72;17.10;;;;;;;6.45;100.00;100242.31;6242324;28;20037;-72
2023/11/12 06:28:54;;;;;;;33.20;15.35;;;;;;;6.43;100.00;100245.91;6238057;28;20053;-72
2023/11/12 06:31:55;;;;;;;41.55;17.08;;;;;;;6.46;100.00;100236.19;6227614;28;20056;-72
2023/11/12 06:34:57;;;;;;;35.10;15.68;;;;;;;6.47;100.00;100232.66;6231012;28;20190;-71
2023/11/12 06:37:58;;;;;;;37.22;17.17;;;;;;;6.49;100.00;100225.56;6247054;28;20046;-71
2023/11/12 06:40:59;;;;;;;38.83;15.15;;;;;;;6.50;100.00;100231.69;6255496;28;20053;-70
2023/11/12 06:44:03;;;;;;;38.50;16.50;;;;;;;6.48;100.00;100223.06;6254881;28;20048;-71
2023/11/12 06:47:04;;;;;;;33.17;14.82;;;;;;;6.52;100.00;100227.22;6255340;28;20049;-71
2023/11/12 06:50:07;;;;;;;30.98;13.70;;;;;;;6.53;100.00;100221.91;6254965;28;20453;-70
2023/11/12 06:53:08;;;;;;;33.17;14.63;;;;;;;6.56;100.00;100232.22;6255066;28;20053;-70
2023/11/12 06:56:10;;;;;;;37.65;16.08;;;;;;;6.54;100.00;100247.13;6254838;28;20045;-71
2023/11/12 06:59:12;;;;;;;32.63;15.45;;;;;;;6.49;100.00;100243.84;6255093;28;20049;-71
2023/11/12 07:02:15;;;;;;;32.40;15.13;;;;;;;6.52;100.00;100248.94;6254530;28;20066;-71
2023/11/12 07:05:17;;;;;;;35.20;15.65;;;;;;;6.50;100.00;100248.19;6230944;28;20147;-71
2023/11/12 07:08:19;;;;;;;36.45;15.95;;;;;;;6.51;100.00;100251.63;6229935;28;20119;-72
2023/11/12 07:11:21;;;;;;;34.88;15.63;;;;;;;6.50;100.00;100258.63;6229098;28;20173;-71
2023/11/12 07:14:24;;;;;;;31.80;14.77;;;;;;;6.50;100.00;100269.06;6242306;28;20352;-71
2023/11/12 07:17:26;;;;;;;33.05;15.35;;;;;;;6.55;100.00;100267.09;6237163;28;20136;-71
2023/11/12 07:20:32;;;;;;;36.28;14.13;;;;;;;6.54;100.00;100277.56;6242211;28;20057;-71
2023/11/12 07:23:33;;;;;;;35.55;15.65;;;;;;;6.52;100.00;100279.44;6226143;28;20054;-71
2023/11/12 07:26:34;;;;;;;31.23;14.57;;;;;;;6.55;100.00;100274.91;6245960;28;20049;-72
2023/11/12 07:29:37;;;;;;;30.75;14.45;;;;;;;6.60;100.00;100286.00;6240522;28;20045;-71
2023/11/12 07:32:39;;;;;;;33.05;13.68;;;;;;;6.60;100.00;100283.41;6245714;28;20046;-72
2023/11/12 07:35:40;;;;;;;29.83;13.30;;;;;;;6.63;100.00;100287.63;6253971;28;20056;-71
2023/11/12 07:38:42;;;;;;;26.77;13.35;;;;;;;6.63;100.00;100285.00;6254041;28;20053;-71
2023/11/12 07:41:44;;;;;;;33.00;14.82;;;;;;;6.67;100.00;100283.09;6253716;28;20049;-71
2023/11/12 07:44:47;;;;;;;26.52;12.52;;;;;;;6.66;100.00;100287.50;6265471;22;20053;-70
2023/11/12 07:47:48;;;;;;;29.55;13.57;;;;;;;6.69;100.00;100286.53;6212167;28;20481;-71
2023/11/12 07:50:49;;;;;;;30.30;14.50;;;;;;;6.71;100.00;100289.91;6233376;28;20056;-70
2023/11/12 07:53:51;;;;;;;30.77;13.65;;;;;;;6.71;100.00;100290.75;6239331;28;20053;-71
2023/11/12 07:56:52;;;;;;;23.55;12.25;;;;;;;6.73;100.00;100291.53;6239171;28;20045;-70
2023/11/12 07:59:55;;;;;;;26.85;13.02;;;;;;;6.80;100.00;100295.53;6242102;28;20052;-71
2023/11/12 08:02:58;;;;;;;30.40;13.50;;;;;;;6.82;100.00;100291.13;6253355;28;20079;-71
2023/11/12 08:05:59;;;;;;;28.20;13.70;;;;;;;6.82;100.00;100291.13;6253315;28;20358;-72
2023/11/12 08:09:00;;;;;;;34.40;14.60;;;;;;;6.84;100.00;100304.09;6242066;28;20046;-71
2023/11/12 08:12:03;;;;;;;27.02;12.52;;;;;;;6.86;100.00;100297.06;6241465;28;20488;-71
2023/11/12 08:15:07;;;;;;;35.13;14.50;;;;;;;6.88;100.00;100303.03;6244420;28;20465;-71
2023/11/12 08:18:09;;;;;;;28.38;14.38;;;;;;;6.91;100.00;100307.31;6230757;28;20050;-71
2023/11/12 08:21:11;;;;;;;34.55;14.90;;;;;;;6.93;100.00;100311.53;6228592;28;20050;-71
2023/11/12 08:24:12;;;;;;;31.92;14.02;;;;;;;6.90;100.00;100316.03;6228370;28;20042;-71
2023/11/12 08:27:14;;;;;;;28.25;13.15;;;;;;;6.86;100.00;100312.72;6228342;28;20362;-71
2023/11/12 08:30:17;;;;;;;31.80;14.57;;;;;;;6.94;100.00;100309.75;6228354;28;20061;-70
2023/11/12 08:33:19;;;;;;;30.60;13.90;;;;;;;6.92;100.00;100302.00;6241620;28;20058;-71
2023/11/12 08:36:20;;;;;;;33.83;14.80;;;;;;;6.96;100.00;100321.00;6244170;28;20053;-71
2023/11/12 08:39:22;;;;;;;31.73;14.38;;;;;;;6.91;100.00;100315.13;6252614;28;20053;-72
2023/11/12 08:42:26;;;;;;;36.63;15.70;;;;;;;6.96;100.00;100319.22;6252484;28;20049;-71
2023/11/12 08:45:29;;;;;;;26.52;13.15;;;;;;;6.98;100.00;100326.97;6252275;28;20056;-71
2023/11/12 08:48:32;;;;;;;34.53;14.55;;;;;;;6.97;100.00;100315.69;6237671;28;20050;-71
2023/11/12 08:51:34;;;;;;;34.47;15.38;;;;;;;6.89;100.00;100322.19;6220282;28;20057;-71
2023/11/12 08:54:35;;;;;;;30.75;14.88;;;;;;;6.88;100.00;100325.72;6203322;28;20046;-70
2023/11/12 08:57:37;;;;;;;32.35;15.32;;;;;;;6.84;100.00;100328.44;6216894;28;20058;-71
2023/11/12 09:00:40;;;;;;;30.88;14.75;;;;;;;6.90;100.00;100327.31;6234757;28;20050;-70
2023/11/12 09:03:41;;;;;;;36.58;15.15;;;;;;;6.96;100.00;100328.84;6245230;28;20052;-69
2023/11/12 09:06:42;;;;;;;35.78;15.52;;;;;;;6.99;100.00;100334.75;6236661;28;20046;-70
2023/11/12 09:09:44;;;;;;;35.35;16.30;;;;;;;7.01;100.00;100339.91;6252030;28;20073;-70
2023/11/12 09:12:45;;;;;;;32.83;15.50;;;;;;;7.06;100.00;100341.41;6251512;28;20060;-70
2023/11/12 09:15:48;;;;;;;30.85;14.98;;;;;;;7.10;100.00;100337.72;6251555;28;20053;-70
2023/11/12 09:18:49;;;;;;;39.45;16.35;;;;;;;7.12;100.00;100353.31;6251605;28;20049;-71
2023/11/12 09:21:51;;;;;;;39.20;16.73;;;;;;;7.12;100.00;100350.72;6248136;28;20045;-71
2023/11/12 09:24:52;;;;;;;35.38;16.45;;;;;;;7.11;100.00;100359.47;6226803;28;20453;-71
2023/11/12 09:27:54;;;;;;;33.33;15.95;;;;;;;7.09;100.00;100350.88;6227120;28;20057;-71
2023/11/12 09:30:56;;;;;;;35.42;16.70;;;;;;;7.16;100.00;100351.44;6226818;28;20052;-71
2023/11/12 09:33:58;;;;;;;38.30;15.75;;;;;;;7.29;100.00;100350.78;6226807;28;20046;-71
2023/11/12 09:37:01;;;;;;;40.70;17.70;;;;;;;7.38;100.00;100341.69;6226451;28;20084;-71
2023/11/12 09:40:03;;;;;;;34.42;15.68;;;;;;;7.49;100.00;100355.09;6226786;28;20056;-71
2023/11/12 09:43:04;;;;;;;43.08;17.75;;;;;;;7.58;100.00;100354.66;6224701;28;20037;-71
2023/11/12 09:46:08;;;;;;;34.22;15.52;;;;;;;7.55;100.00;100356.59;6233262;28;20612;-71
2023/11/12 09:49:10;;;;;;;34.72;15.23;;;;;;;7.60;100.00;100358.06;6236736;28;20057;-71
2023/11/12 09:52:12;;;;;;;38.40;16.40;;;;;;;7.68;100.00;100362.09;6240322;28;20049;-71
2023/11/12 09:55:16;;;;;;;34.00;16.15;;;;;;;7.46;100.00;100365.72;6250858;28;20050;-71
2023/11/12 09:58:17;;;;;;;33.70;15.48;;;;;;;7.54;100.00;100376.66;6228444;28;20054;-71
2023/11/12 10:01:21;;;;;;;32.45;14.75;;;;;;;7.54;100.00;100360.97;6227420;28;20557;-71
2023/11/12 10:04:22;;;;;;;33.95;15.38;;;;;;;7.58;100.00;100359.03;6225947;28;20096;-71
2023/11/12 10:07:25;;;;;;;37.42;14.52;;;;;;;7.61;100.00;100362.38;6225566;28;20050;-71
2023/11/12 10:10:30;;;;;;;28.30;13.60;;;;;;;7.57;100.00;100355.59;6234183;28;20072;-71
2023/11/12 10:13:36;;;;;;;35.40;13.50;;;;;;;7.58;100.00;100354.66;6227448;28;20061;-71
2023/11/12 10:16:39;;;;;;;31.95;13.73;;;;;;;7.58;100.00;100354.66;6250502;28;20084;-70
2023/11/12 10:19:54;;;;;;;35.28;14.25;;;;;;;7.48;100.00;100350.78;6250793;28;20053;-71
2023/11/12 10:22:56;;;;;;;29.48;13.48;;;;;;;7.54;100.00;100350.53;6250652;28;20068;-70
2023/11/12 10:25:57;;;;;;;25.23;12.73;;;;;;;7.58;100.00;100353.81;6233017;28;20053;-70
2023/11/12 10:28:58;;;;;;;33.33;13.35;;;;;;;7.65;100.00;100352.63;6225850;28;20053;-71
2023/11/12 10:32:01;;;;;;;31.73;13.05;;;;;;;7.68;100.00;100346.41;6225533;28;20073;-71
2023/11/12 10:35:04;;;;;;;29.05;13.15;;;;;;;7.76;100.00;100350.31;6225635;28;20489;-71
2023/11/12 10:38:06;;;;;;;28.92;13.18;;;;;;;7.74;100.00;100351.31;6225588;28;20453;-71
2023/11/12 10:41:07;;;;;;;24.98;13.07;;;;;;;7.78;100.00;100350.25;6225839;28;20176;-71
2023/11/12 10:44:13;;;;;;;26.30;12.32;;;;;;;7.86;100.00;100342.91;6225610;28;20177;-70
2023/11/12 10:47:18;;;;;;;27.10;13.18;;;;;;;8.00;100.00;100339.59;6225576;28;20446;-71
2023/11/12 10:50:22;;;;;;;28.63;13.23;;;;;;;8.13;100.00;100345.94;6225633;28;20166;-71
2023/11/12 10:53:25;;;;;;;27.67;13.02;;;;;;;8.00;100.00;100350.91;6225680;28;20046;-71
2023/11/12 10:56:28;;;;;;;26.17;12.18;;;;;;;7.98;100.00;100346.66;6225533;28;20049;-71
2023/11/12 10:59:31;;;;;;;24.50;12.15;;;;;;;8.00;100.00;100348.31;6225754;28;20057;-71
2023/11/12 11:02:37;;;;;;;28.85;12.07;;;;;;;8.00;100.00;100350.06;6225233;28;20054;-71
2023/11/12 11:05:38;;;;;;;28.63;12.70;;;;;;;7.96;100.00;100349.38;6225724;28;20053;-71
2023/11/12 11:08:40;;;;;;;24.48;11.23;;;;;;;7.85;100.00;100354.25;6225059;28;20446;-72
2023/11/12 11:11:43;;;;;;;25.58;12.52;;;;;;;7.95;100.00;100349.44;6225493;28;20057;-71
2023/11/12 11:14:46;;;;;;;22.60;11.18;;;;;;;8.06;100.00;100350.59;6225511;28;20054;-72
2023/11/12 11:17:49;;;;;;;22.88;10.48;;;;;;;8.13;100.00;100338.09;6225400;28;20137;-71
2023/11/12 11:21:12;;;;;;;25.10;11.02;;;;;;;8.14;100.00;100334.53;6229699;28;20355;-71
2023/11/12 11:24:43;;;;;;;22.48;10.77;;;;;;;8.23;100.00;100330.63;6229759;28;20465;-71
2023/11/12 11:27:47;;;;;;;28.65;10.85;;;;;;;8.20;100.00;100338.59;6229778;28;20074;-71
2023/11/12 11:31:10;;;;;;;22.33;11.10;;;;;;;8.23;100.00;100335.84;6229674;28;20053;-71
2023/11/12 11:34:13;;;;;;;29.33;12.48;;;;;;;8.41;100.00;100332.34;6229378;28;20450;-72
2023/11/12 11:37:15;;;;;;;20.73;10.95;;;;;;;8.58;100.00;100331.44;6227834;28;20089;-71
2023/11/12 11:40:28;;;;;;;24.38;11.73;;;;;;;8.69;100.00;100326.50;6211323;28;20596;-71
2023/11/12 11:43:32;;;;;;;19.98;10.77;;;;;;;8.82;100.00;100324.94;6222339;28;20054;-71
2023/11/12 11:46:34;;;;;;;21.58;11.13;;;;;;;9.01;100.00;100332.66;6236698;28;20135;-73
2023/11/12 11:49:37;;;;;;;22.45;9.50;;;;;;;8.84;100.00;100325.69;6230619;28;20052;-72
2023/11/12 11:52:39;;;;;;;20.00;9.10;;;;;;;8.98;100.00;100329.34;6236031;28;20053;-72
2023/11/12 11:55:47;;;;;;;17.83;8.45;;;;;;;9.11;100.00;100326.00;6238047;28;20607;-71
2023/11/12 11:58:50;;;;;;;18.35;8.50;;;;;;;8.96;100.00;100329.44;6214111;28;20060;-72
2023/11/12 12:01:53;;;;;;;26.20;7.75;;;;;;;9.01;100.00;100331.81;6219706;28;20049;-71
2023/11/12 12:04:57;;;;;;;18.17;7.70;;;;;;;8.93;100.00;100334.00;6228853;28;20472;-73
2023/11/12 12:08:03;;;;;;;16.55;7.95;;;;;;;9.07;100.00;100324.47;6244303;28;20041;-71
2023/11/12 12:11:16;;;;;;;15.82;7.53;;;;;;;9.19;100.00;100322.13;6239975;28;20041;-72
2023/11/12 12:14:20;;;;;;;12.82;6.65;;;;;;;9.33;100.00;100323.06;6240111;28;20045;-72
2023/11/12 12:17:22;;;;;;;16.55;7.65;;;;;;;9.39;100.00;100320.09;6243954;28;20056;-74
2023/11/12 12:20:25;;;;;;;14.20;7.03;;;;;;;9.32;100.00;100318.75;6247731;28;20050;-71
2023/11/12 12:23:27;;;;;;;14.98;7.20;;;;;;;9.08;100.00;100328.81;6213044;28;20064;-74
2023/11/12 12:26:28;;;;;;;17.10;8.25;;;;;;;8.91;100.00;100333.25;6220958;28;20042;-74
2023/11/12 12:29:31;;;;;;;12.18;6.82;;;;;;;8.69;100.00;100330.91;6217958;28;20053;-79
2023/11/12 12:32:36;;;;;;;15.00;7.95;;;;;;;8.62;100.00;100333.81;6223153;28;20053;-76
2023/11/12 12:35:39;;;;;;;12.07;7.10;;;;;;;8.69;100.00;100336.16;6221157;28;20042;-71
2023/11/12 12:38:56;;;;;;;15.32;7.63;;;;;;;8.58;100.00;100339.28;6209102;28;20056;-71
2023/11/12 12:42:03;;;;;;;15.70;7.18;;;;;;;8.48;100.00;100340.72;6237620;28;20429;-71
2023/11/12 12:45:12;;;;;;;17.63;8.02;;;;;;;8.59;100.00;100344.47;6235634;28;20456;-71
2023/11/12 12:48:14;;;;;;;17.35;8.15;;;;;;;8.63;100.00;100334.69;6241962;28;20126;-71
2023/11/12 12:51:17;;;;;;;13.85;8.05;;;;;;;8.64;100.00;100337.22;6224436;28;20107;-72
2023/11/12 12:54:19;;;;;;;12.63;7.13;;;;;;;8.42;100.00;100339.25;6237815;28;20064;-71
2023/11/12 12:57:24;;;;;;;16.45;7.85;;;;;;;8.49;100.00;100339.78;6243873;28;20088;-71
2023/11/12 13:00:25;;;;;;;16.25;7.13;;;;;;;8.38;100.00;100341.16;6230032;28;20049;-72
2023/11/12 13:03:30;;;;;;;14.98;7.18;;;;;;;8.32;100.00;100341.47;6242583;28;20053;-71
2023/11/12 13:06:33;;;;;;;16.50;7.03;;;;;;;8.31;100.00;100333.66;6237390;28;20042;-72
2023/11/12 13:09:34;;;;;;;13.18;7.03;;;;;;;8.24;100.00;100348.00;6243675;28;20052;-72
2023/11/12 13:12:35;;;;;;;11.63;6.60;;;;;;;8.20;100.00;100336.00;6240347;28;20061;-71
2023/11/12 13:15:37;;;;;;;15.23;6.75;;;;;;;8.16;100.00;100335.28;6251759;28;20061;-72
2023/11/12 13:18:40;;;;;;;12.70;7.07;;;;;;;8.29;100.00;100346.84;6251610;28;20357;-72
2023/11/12 13:21:44;;;;;;;16.67;6.70;;;;;;;8.34;100.00;100351.84;6250366;28;20049;-71
2023/11/12 13:24:45;;;;;;;13.32;6.93;;;;;;;8.48;100.00;100352.03;6240413;28;20184;-72
2023/11/12 13:27:49;;;;;;;15.43;6.93;;;;;;;8.45;100.00;100354.81;6242778;28;20054;-73
2023/11/12 13:30:50;;;;;;;17.90;8.13;;;;;;;8.36;100.00;100358.75;6245590;28;20053;-72
2023/11/12 13:33:51;;;;;;;27.85;10.05;;;;;;;8.42;100.00;100368.06;6239978;28;20052;-72
2023/11/12 13:36:54;;;;;;;38.65;9.85;;;;;;;8.41;100.00;100363.75;6237004;28;20037;-72
2023/11/12 13:39:55;;;;;;;14.75;8.25;;;;;;;8.45;100.00;100369.66;6242122;28;20053;-72
2023/11/12 13:42:57;;;;;;;16.98;7.68;;;;;;;8.48;100.00;100372.13;6237381;28;20049;-71
2023/11/12 13:45:59;;;;;;;19.48;7.43;;;;;;;8.48;100.00;100369.50;6266135;22;20077;-73
2023/11/12 13:49:00;;;;;;;14.07;8.15;;;;;;;8.34;100.00;100372.78;6215188;28;20065;-74
2023/11/12 13:52:05;;;;;;;16.58;8.18;;;;;;;8.34;100.00;100370.19;6211098;28;20052;-74